createdAt,value
2023-01-25T00:04:48.554Z,42.58
2023-01-25T00:09:50.565Z,41.03
2023-01-25T00:14:51.250Z,43.90
2023-01-25T00:19:51.894Z,45.00
2023-01-25T00:24:54.908Z,38.92
2023-01-25T00:29:55.566Z,37.72
2023-01-25T00:34:56.658Z,37.15
2023-01-25T00:39:58.786Z,37.53
2023-01-25T00:44:59.421Z,32.67
2023-01-25T00:50:00.133Z,33.45
2023-01-25T00:55:02.152Z,30.50
2023-01-25T01:00:02.824Z,37.60
2023-01-25T01:05:03.571Z,32.10
2023-01-25T01:10:08.902Z,33.47
2023-01-25T01:15:10.686Z,36.47
2023-01-25T01:20:12.443Z,30.52
2023-01-25T01:25:14.696Z,28.30
2023-01-25T01:30:15.540Z,29.58
2023-01-25T01:35:16.417Z,28.45
2023-01-25T01:40:18.799Z,33.13
2023-01-25T01:45:52.079Z,28.42
2023-01-25T01:51:02.781Z,31.52
2023-01-25T01:56:09.577Z,29.50
2023-01-25T02:01:10.481Z,38.97
2023-01-25T02:06:15.696Z,35.53
2023-01-25T02:11:18.075Z,27.30
2023-01-25T02:16:29.507Z,32.80
2023-01-25T02:21:38.749Z,27.33
2023-01-25T02:26:41.459Z,31.25
2023-01-25T02:31:45.646Z,30.30
2023-01-25T02:36:46.577Z,28.90
2023-01-25T02:41:49.132Z,33.90
2023-01-25T02:46:50.331Z,30.55
2023-01-25T02:51:55.828Z,34.70
2023-01-25T02:56:58.460Z,35.47
2023-01-25T03:02:02.814Z,33.70
2023-01-25T03:07:04.983Z,28.00
2023-01-25T03:12:07.739Z,36.25
2023-01-25T03:17:08.583Z,36.00
2023-01-25T03:22:11.082Z,33.28
2023-01-25T03:27:14.273Z,35.08
2023-01-25T03:32:18.521Z,29.48
2023-01-25T03:37:19.513Z,33.92
2023-01-25T03:42:23.618Z,31.25
2023-01-25T03:47:29.240Z,28.13
2023-01-25T03:52:37.301Z,39.75
2023-01-25T03:57:39.696Z,35.38
2023-01-25T04:02:43.376Z,34.58
2023-01-25T04:07:47.978Z,31.75
2023-01-25T04:12:53.965Z,32.45
2023-01-25T04:17:56.245Z,29.83
2023-01-25T04:22:58.070Z,34.75
2023-01-25T04:28:07.016Z,35.10
2023-01-25T04:33:08.078Z,29.77
2023-01-25T04:38:08.876Z,28.08
2023-01-25T04:43:15.767Z,33.42
2023-01-25T04:48:17.888Z,29.13
2023-01-25T04:53:24.268Z,31.63
2023-01-25T04:58:27.222Z,33.40
2023-01-25T05:03:28.240Z,28.15
2023-01-25T05:08:29.073Z,26.15
2023-01-25T05:13:35.583Z,31.00
2023-01-25T05:19:02.379Z,34.10
2023-01-25T05:24:10.950Z,31.55
2023-01-25T05:29:14.057Z,29.27
2023-01-25T05:34:23.605Z,32.72
2023-01-25T05:39:24.911Z,30.38
2023-01-25T05:44:28.572Z,28.70
2023-01-25T05:49:29.311Z,29.48
2023-01-25T05:54:30.387Z,28.95
2023-01-25T05:59:38.887Z,36.35
2023-01-25T06:04:42.494Z,30.15
2023-01-25T06:09:44.248Z,36.92
2023-01-25T06:14:47.304Z,28.38
2023-01-25T06:19:47.977Z,25.17
2023-01-25T06:25:09.911Z,32.90
2023-01-25T06:30:12.869Z,27.08
2023-01-25T06:35:13.539Z,30.00
2023-01-25T06:40:14.565Z,30.40
2023-01-25T06:45:16.743Z,27.17
2023-01-25T06:50:17.506Z,23.00
2023-01-25T06:55:18.204Z,29.48
2023-01-25T07:00:20.930Z,29.10
2023-01-25T07:05:21.609Z,31.65
2023-01-25T07:10:22.354Z,24.70
2023-01-25T07:15:24.684Z,24.95
2023-01-25T07:20:25.379Z,30.77
2023-01-25T07:25:26.043Z,26.33
2023-01-25T07:30:28.091Z,29.13
2023-01-25T07:35:28.795Z,28.23
2023-01-25T07:40:29.569Z,25.38
2023-01-25T07:45:32.076Z,27.20
2023-01-25T07:50:32.804Z,25.08
2023-01-25T07:55:33.548Z,27.38
2023-01-25T08:00:35.752Z,24.70
2023-01-25T08:05:37.197Z,31.17
2023-01-25T08:10:39.266Z,27.02
2023-01-25T08:15:41.268Z,28.77
2023-01-25T08:20:41.929Z,28.25
2023-01-25T08:25:42.619Z,22.60
2023-01-25T08:30:56.479Z,29.67
2023-01-25T08:35:58.283Z,26.08
2023-01-25T08:41:06.010Z,31.70
2023-01-25T08:46:08.115Z,30.10
2023-01-25T08:51:10.041Z,28.83
2023-01-25T08:56:12.235Z,29.05
2023-01-25T09:01:16.586Z,30.67
2023-01-25T09:06:18.461Z,28.92
2023-01-25T09:11:21.345Z,27.27
2023-01-25T09:16:29.034Z,28.65
2023-01-25T09:21:30.690Z,30.42
2023-01-25T09:26:31.560Z,30.85
2023-01-25T09:31:34.586Z,31.00
2023-01-25T09:36:44.142Z,32.55
2023-01-25T09:42:14.572Z,31.77
2023-01-25T09:47:25.610Z,29.63
2023-01-25T09:52:50.838Z,31.17
2023-01-25T09:57:55.410Z,35.65
2023-01-25T10:03:01.665Z,34.05
2023-01-25T10:08:07.147Z,36.33
2023-01-25T10:13:12.496Z,30.48
2023-01-25T10:18:22.602Z,30.13
2023-01-25T10:23:42.122Z,30.45
2023-01-25T10:28:48.494Z,30.75
2023-01-25T10:33:50.592Z,31.98
2023-01-25T10:38:57.438Z,27.67
2023-01-25T10:44:12.593Z,31.00
2023-01-25T10:49:23.870Z,31.35
2023-01-25T10:54:25.207Z,29.55
2023-01-25T10:59:28.264Z,29.58
2023-01-25T11:04:35.956Z,28.40
2023-01-25T11:09:39.063Z,24.63
2023-01-25T11:14:39.772Z,28.30
2023-01-25T11:19:42.188Z,23.17
2023-01-25T11:24:42.990Z,28.23
2023-01-25T11:29:47.033Z,29.23
2023-01-25T11:34:50.143Z,24.63
2023-01-25T11:40:00.291Z,22.08
2023-01-25T11:45:36.970Z,23.30
2023-01-25T11:50:45.245Z,21.75
2023-01-25T11:55:53.898Z,20.05
2023-01-25T12:01:08.303Z,21.77
2023-01-25T12:06:17.431Z,18.92
2023-01-25T12:11:29.967Z,18.48
2023-01-25T12:16:44.710Z,19.73
2023-01-25T12:22:07.515Z,16.90
2023-01-25T12:27:20.445Z,18.92
2023-01-25T12:32:25.432Z,22.65
2023-01-25T12:37:33.835Z,21.58
2023-01-25T12:42:39.983Z,27.10
2023-01-25T12:47:45.187Z,22.58
2023-01-25T12:52:52.296Z,19.65
2023-01-25T12:58:00.987Z,17.17
2023-01-25T13:03:12.531Z,22.63
2023-01-25T13:08:31.634Z,22.40
2023-01-25T13:13:33.328Z,15.95
2023-01-25T13:18:41.477Z,17.15
2023-01-25T13:23:47.283Z,22.73
2023-01-25T13:28:49.367Z,19.17
2023-01-25T13:33:50.042Z,18.38
2023-01-25T13:38:52.119Z,18.35
2023-01-25T13:44:14.475Z,22.50
2023-01-25T13:49:23.793Z,21.02
2023-01-25T13:54:25.832Z,17.15
2023-01-25T13:59:28.592Z,18.27
2023-01-25T14:04:30.500Z,20.05
2023-01-25T14:09:32.522Z,20.75
2023-01-25T14:14:34.743Z,19.33
2023-01-25T14:19:38.363Z,22.83
2023-01-25T14:24:40.914Z,19.92
2023-01-25T14:29:42.387Z,20.80
2023-01-25T14:34:43.137Z,21.98
2023-01-25T14:39:46.603Z,19.98
2023-01-25T14:44:48.009Z,24.05
2023-01-25T14:49:48.675Z,20.02
2023-01-25T14:54:54.703Z,20.35
2023-01-25T14:59:57.040Z,25.13
2023-01-25T15:05:04.882Z,22.90
2023-01-25T15:10:22.953Z,24.45
2023-01-25T15:15:24.944Z,22.60
2023-01-25T15:20:37.422Z,24.83
2023-01-25T15:25:51.711Z,24.92
2023-01-25T15:30:53.195Z,27.30
2023-01-25T15:35:55.614Z,25.65
2023-01-25T15:41:01.376Z,25.50
2023-01-25T15:46:02.367Z,27.77
2023-01-25T15:51:03.143Z,27.23
2023-01-25T15:56:07.917Z,34.42
2023-01-25T16:01:09.247Z,30.25
2023-01-25T16:06:26.095Z,32.83
2023-01-25T16:11:28.819Z,28.77
2023-01-25T16:16:29.595Z,30.55
2023-01-25T16:21:30.943Z,32.90
2023-01-25T16:26:33.322Z,30.75
2023-01-25T16:31:34.272Z,34.97
2023-01-25T16:36:35.634Z,35.38
2023-01-25T16:41:38.057Z,32.10
2023-01-25T16:46:39.772Z,33.70
2023-01-25T16:51:41.061Z,31.33
2023-01-25T16:56:43.254Z,37.50
2023-01-25T17:01:44.435Z,38.53
2023-01-25T17:06:46.892Z,36.72
2023-01-25T17:11:48.953Z,41.63
2023-01-25T17:16:51.620Z,44.88
2023-01-25T17:21:52.625Z,39.10
2023-01-25T17:26:57.247Z,39.38
2023-01-25T17:31:58.086Z,42.20
2023-01-25T17:36:58.838Z,37.95
2023-01-25T17:42:00.831Z,38.33
2023-01-25T17:47:01.747Z,36.28
2023-01-25T17:52:02.864Z,47.20
2023-01-25T17:57:04.890Z,45.58
2023-01-25T18:02:06.484Z,36.83
2023-01-25T18:07:07.120Z,38.47
2023-01-25T18:12:09.265Z,40.15
2023-01-25T18:17:10.200Z,39.15
2023-01-25T18:22:10.926Z,40.13
2023-01-25T18:27:20.691Z,49.80
2023-01-25T18:32:21.562Z,36.80
2023-01-25T18:37:24.156Z,44.10
2023-01-25T18:42:27.299Z,32.70
2023-01-25T18:47:28.021Z,38.47
2023-01-25T18:52:28.719Z,37.83
2023-01-25T18:57:30.776Z,43.05
2023-01-25T19:02:31.579Z,42.20
2023-01-25T19:07:33.274Z,41.47
2023-01-25T19:12:35.380Z,38.58
2023-01-25T19:17:36.125Z,46.40
2023-01-25T19:22:36.831Z,40.60
2023-01-25T19:27:38.897Z,43.92
2023-01-25T19:32:39.625Z,41.83
2023-01-25T19:37:40.262Z,42.42
2023-01-25T19:42:42.273Z,41.95
2023-01-25T19:47:42.964Z,36.55
2023-01-25T19:52:43.972Z,34.55
2023-01-25T19:57:47.363Z,35.33
2023-01-25T20:02:48.092Z,34.20
2023-01-25T20:07:49.050Z,35.13
2023-01-25T20:12:51.253Z,36.60
2023-01-25T20:17:51.980Z,44.10
2023-01-25T20:22:54.283Z,49.63
2023-01-25T20:27:56.334Z,54.63
2023-01-25T20:32:56.979Z,45.95
2023-01-25T20:37:57.641Z,53.63
2023-01-25T20:42:59.663Z,46.05
2023-01-25T20:48:00.421Z,47.35
2023-01-25T20:53:01.107Z,58.50
2023-01-25T20:58:03.159Z,48.90
2023-01-25T21:03:03.896Z,50.28
2023-01-25T21:08:05.094Z,46.72
2023-01-25T21:13:07.398Z,45.38
2023-01-25T21:18:08.093Z,46.05
2023-01-25T21:23:08.786Z,50.97
2023-01-25T21:28:10.836Z,55.33
2023-01-25T21:33:11.501Z,59.85
2023-01-25T21:38:12.221Z,51.50
2023-01-25T21:43:14.349Z,64.72
2023-01-25T21:48:35.100Z,56.17
2023-01-25T21:53:35.758Z,55.20
2023-01-25T21:58:37.774Z,64.78
2023-01-25T22:03:38.481Z,59.67
2023-01-25T22:08:40.658Z,60.55
2023-01-25T22:13:42.935Z,61.15
2023-01-25T22:18:44.574Z,64.13
2023-01-25T22:23:46.006Z,54.50
2023-01-25T22:28:50.390Z,64.75
2023-01-25T22:33:52.378Z,58.90
2023-01-25T22:38:53.506Z,62.65
2023-01-25T22:43:56.014Z,61.38
2023-01-25T22:48:56.845Z,60.10
2023-01-25T22:53:59.200Z,67.57
2023-01-25T22:59:02.056Z,71.93
2023-01-25T23:04:03.420Z,63.65
2023-01-25T23:09:07.137Z,66.95
2023-01-25T23:14:41.492Z,68.50
2023-01-25T23:19:42.522Z,62.13
2023-01-25T23:24:43.287Z,67.90
2023-01-25T23:29:45.314Z,71.70
2023-01-25T23:34:46.008Z,70.47
2023-01-25T23:39:46.689Z,61.20
2023-01-25T23:44:48.700Z,59.45
2023-01-25T23:49:49.404Z,65.78
2023-01-25T23:54:50.158Z,61.45
2023-01-25T23:59:52.187Z,63.13
